Time;durP1;ratioP1;P1;durP2;ratioP2;P2;SDS_P1;SDS_P2;PMS_P1;PMS_P2;Temp;Humidity;BMP_temperature;BMP_pressure;BME280_temperature;BME280_humidity;BME280_pressure;Samples;Min_cycle;Max_cycle;Signal;HPM_P1;HPM_P2
2022/01/05 00:04:19;;;;;;;14.73;6.57;;;9.10;99.90;;;6.95;84.44;98500.81;10371015;28;97339;-78
2022/01/05 00:09:22;;;;;;;16.97;7.17;;;9.00;99.90;;;6.85;85.06;98491.59;10386414;28;97257;-79
2022/01/05 00:14:25;;;;;;;13.40;6.57;;;8.80;99.90;;;6.82;86.24;98489.31;10357128;28;99823;-79
2022/01/05 00:19:34;;;;;;;12.67;6.03;;;8.70;99.90;;;6.78;86.26;98483.59;10390923;28;96654;-80
2022/01/05 00:24:38;;;;;;;7.73;4.20;;;8.70;99.90;;;6.69;86.37;98482.88;10374277;28;98220;-80
2022/01/05 00:29:41;;;;;;;10.03;4.77;;;8.60;99.90;;;6.60;86.66;98470.78;10389625;28;97053;-79
2022/01/05 00:34:43;;;;;;;7.93;3.57;;;8.60;99.90;;;6.54;86.98;98483.91;10373043;28;98376;-80
2022/01/05 00:39:47;;;;;;;6.70;3.60;;;8.50;99.90;;;6.46;86.81;98481.34;10382441;28;96850;-80
2022/01/05 00:44:50;;;;;;;8.90;4.87;;;8.40;99.90;;;6.35;87.38;98483.44;10374693;28;97299;-80
2022/01/05 00:49:53;;;;;;;5.43;3.10;;;8.30;99.90;;;6.30;87.75;98485.00;10388799;28;96707;-79
2022/01/05 00:54:59;;;;;;;17.73;6.77;;;8.30;99.90;;;6.24;88.18;98490.97;10379898;28;97735;-80
2022/01/05 01:00:08;;;;;;;28.40;13.83;;;8.20;99.90;;;6.24;89.71;98490.97;10371355;28;97182;-79
2022/01/05 01:05:14;;;;;;;9.93;5.83;;;8.20;99.90;;;6.39;90.59;98479.44;10368381;28;98846;-80
2022/01/05 01:10:17;;;;;;;10.20;4.50;;;8.30;99.90;;;6.59;91.38;98495.53;10365677;28;97363;-80
2022/01/05 01:15:21;;;;;;;5.60;3.33;;;8.40;99.90;;;6.70;91.37;98484.50;10368591;28;98322;-79
2022/01/05 01:20:24;;;;;;;7.27;2.97;;;8.50;99.90;;;6.78;91.46;98483.59;10377342;28;96657;-80
2022/01/05 01:25:27;;;;;;;5.80;3.03;;;8.60;99.90;;;6.92;91.73;98495.13;10386315;28;97280;-80
2022/01/05 01:30:32;;;;;;;7.13;3.30;;;8.60;99.90;;;7.01;91.71;98491.34;10373989;28;98298;-80
2022/01/05 01:35:35;;;;;;;6.97;3.37;;;8.70;99.90;;;7.09;91.49;98483.31;10362790;28;98846;-81
2022/01/05 01:40:38;;;;;;;6.17;3.77;;;8.80;99.90;;;7.15;91.53;98473.84;10351020;28;98720;-80
2022/01/05 01:45:42;;;;;;;7.00;3.30;;;8.90;99.90;;;7.18;91.30;98468.97;10322833;28;97224;-80
2022/01/05 01:50:46;;;;;;;5.87;3.33;;;8.90;99.90;;;7.19;91.20;98470.59;10344633;28;97423;-80
2022/01/05 01:55:50;;;;;;;6.33;3.27;;;8.90;99.90;;;7.18;91.04;98478.72;10324829;28;97448;-80
2022/01/05 02:00:54;;;;;;;4.93;3.03;;;9.00;99.90;;;7.15;91.09;98464.09;10308918;28;98433;-79
2022/01/05 02:05:57;;;;;;;7.63;3.20;;;8.90;99.90;;;7.11;90.99;98456.72;10309472;28;99828;-79
2022/01/05 02:11:01;;;;;;;5.87;3.07;;;8.90;99.90;;;7.05;91.05;98463.56;10323827;28;97237;-79
2022/01/05 02:16:09;;;;;;;7.40;3.60;;;8.90;99.90;;;7.01;91.01;98459.66;10323020;28;99445;-79
2022/01/05 02:21:14;;;;;;;6.83;3.40;;;8.80;99.90;;;6.93;91.08;98457.13;10347475;28;96928;-79
2022/01/05 02:26:17;;;;;;;6.73;3.37;;;8.80;99.90;;;6.82;91.01;98450.50;10323579;28;97295;-79
2022/01/05 02:31:20;;;;;;;6.60;3.50;;;8.70;99.90;;;6.71;90.96;98446.53;10329023;28;97125;-79
2022/01/05 02:36:23;;;;;;;6.30;3.50;;;8.60;99.90;;;6.63;91.45;98449.28;10322838;28;97122;-78
2022/01/05 02:41:26;;;;;;;7.07;3.53;;;8.60;99.90;;;6.60;91.80;98444.41;10372750;28;98361;-80
2022/01/05 02:46:29;;;;;;;7.33;4.00;;;8.60;99.90;;;6.54;91.71;98452.25;10386395;28;96539;-79
2022/01/05 02:51:33;;;;;;;5.70;2.77;;;8.50;99.90;;;6.44;91.75;98447.22;10371715;28;98326;-79
2022/01/05 02:56:36;;;;;;;5.87;3.13;;;8.40;99.90;;;6.35;91.86;98458.88;10385154;28;96999;-79
2022/01/05 03:01:39;;;;;;;7.80;4.53;;;8.30;99.90;;;6.29;91.88;98462.25;10389034;28;98408;-79
2022/01/05 03:06:43;;;;;;;8.23;4.30;;;8.20;99.90;;;6.27;92.45;98443.97;10391757;28;97635;-79
2022/01/05 03:11:45;;;;;;;5.60;3.00;;;8.20;99.90;;;6.25;92.82;98442.53;10393198;28;97595;-80
2022/01/05 03:16:48;;;;;;;4.23;2.40;;;8.20;99.90;;;6.25;92.93;98445.16;10386941;28;96891;-80
2022/01/05 03:21:51;;;;;;;6.27;3.43;;;8.20;99.90;;;6.23;93.13;98453.25;10377785;28;98539;-80
2022/01/05 03:26:54;;;;;;;6.90;3.33;;;8.10;99.90;;;6.25;93.46;98450.44;10383542;28;96944;-81
2022/01/05 03:31:58;;;;;;;8.87;4.70;;;8.10;99.90;;;6.26;93.58;98460.81;10390770;27;97087;-81
2022/01/05 03:37:02;;;;;;;6.60;3.33;;;8.10;99.90;;;6.23;93.48;98441.88;10377538;28;98160;-81
2022/01/05 03:42:08;;;;;;;6.93;4.13;;;8.20;99.90;;;6.17;93.38;98441.59;10384034;28;96787;-81
2022/01/05 03:47:11;;;;;;;7.73;4.03;;;8.10;99.90;;;6.14;93.69;98441.97;10365277;28;98154;-81
2022/01/05 03:52:16;;;;;;;7.80;4.30;;;8.10;99.90;;;6.23;94.30;98437.41;10372017;28;98350;-80
2022/01/05 03:57:19;;;;;;;11.83;4.87;;;8.10;99.90;;;6.33;94.54;98447.69;10380802;28;99851;-81
2022/01/05 04:02:22;;;;;;;7.67;4.10;;;8.20;99.90;;;6.41;94.53;98439.66;10392026;27;97330;-80
2022/01/05 04:07:25;;;;;;;6.47;3.60;;;8.20;99.90;;;6.48;94.55;98432.69;10379160;28;96946;-81
2022/01/05 04:12:28;;;;;;;7.63;3.63;;;8.30;99.90;;;6.55;94.57;98446.75;10381159;28;97283;-81
2022/01/05 04:17:33;;;;;;;6.37;3.73;;;8.30;99.90;;;6.62;94.45;98437.09;10369844;28;99135;-81
2022/01/05 04:22:38;;;;;;;7.97;4.80;;;8.40;99.90;;;6.68;94.37;98428.44;10394762;27;98816;-81
2022/01/05 04:27:41;;;;;;;6.40;3.43;;;8.50;99.90;;;6.73;94.01;98427.88;10390215;28;98593;-81
2022/01/05 04:32:44;;;;;;;7.17;3.80;;;8.50;99.90;;;6.70;93.65;98422.97;10375306;28;98680;-80
2022/01/05 04:38:07;;;;;;;11.10;4.23;;;8.50;99.90;;;6.64;93.29;98410.50;10381987;28;96666;-81
2022/01/05 04:43:09;;;;;;;7.60;3.80;;;8.50;99.90;;;6.60;93.16;98407.44;10394237;27;98330;-81
2022/01/05 04:48:12;;;;;;;10.50;5.13;;;8.50;99.90;;;6.56;93.23;98411.44;10392436;28;98161;-80
2022/01/05 04:53:15;;;;;;;9.77;4.60;;;8.40;99.90;;;6.53;93.13;98413.63;10382689;28;98260;-80
2022/01/05 04:58:19;;;;;;;10.17;5.07;;;8.40;99.90;;;6.55;93.34;98416.91;10390074;28;99194;-80
2022/01/05 05:03:22;;;;;;;8.37;4.40;;;8.40;99.90;;;6.62;93.76;98413.34;10386803;28;96938;-80
2022/01/05 05:08:27;;;;;;;6.47;4.03;;;8.50;99.90;;;6.66;93.59;98411.16;10377345;28;96604;-80
2022/01/05 05:13:30;;;;;;;6.67;4.30;;;8.50;99.90;;;6.67;93.30;98408.34;10386788;28;98489;-81
2022/01/05 05:18:35;;;;;;;8.30;3.83;;;8.50;99.90;;;6.71;93.59;98409.56;10389411;28;98196;-80
2022/01/05 05:23:38;;;;;;;7.50;3.50;;;8.50;99.90;;;6.83;93.70;98428.38;10387888;28;99324;-80
2022/01/05 05:28:42;;;;;;;7.57;4.13;;;8.60;99.90;;;6.96;93.73;98428.53;10386189;28;97469;-80
2022/01/05 05:33:45;;;;;;;11.33;5.10;;;8.70;99.90;;;7.07;93.11;98426.38;10381261;28;98787;-79
2022/01/05 05:38:49;;;;;;;12.83;4.90;;;8.80;99.90;;;7.28;93.39;98436.16;10365730;28;98565;-78
2022/01/05 05:43:52;;;;;;;7.73;4.47;;;8.90;99.90;;;7.35;92.01;98442.31;10370677;28;98406;-79
2022/01/05 05:48:54;;;;;;;10.37;6.00;;;9.10;99.90;;;7.20;91.00;98451.13;10380824;28;98711;-79
2022/01/05 05:53:58;;;;;;;6.30;3.60;;;9.00;99.90;;;7.01;90.35;98462.28;10379096;28;96916;-79
2022/01/05 05:59:01;;;;;;;8.20;4.93;;;8.90;99.90;;;6.78;90.51;98445.78;10367110;28;99767;-78
2022/01/05 06:04:06;;;;;;;11.07;6.30;;;8.70;99.90;;;6.63;90.51;98454.56;10386193;28;97989;-78
2022/01/05 06:09:09;;;;;;;9.07;4.87;;;8.60;99.90;;;6.52;91.24;98452.41;10386704;28;98519;-79
2022/01/05 06:14:12;;;;;;;9.77;5.63;;;8.50;99.90;;;6.42;91.37;98450.06;10387378;28;98395;-79
2022/01/05 06:19:15;;;;;;;10.17;5.10;;;8.40;99.90;;;6.30;91.38;98458.63;10373107;28;99837;-79
2022/01/05 06:24:18;;;;;;;13.83;7.40;;;8.20;99.90;;;6.17;91.52;98456.59;10387162;28;98116;-78
2022/01/05 06:29:22;;;;;;;10.13;5.83;;;8.10;99.90;;;6.05;91.89;98443.06;10364575;28;98753;-76
2022/01/05 06:34:25;;;;;;;7.00;4.53;;;8.00;99.90;;;5.98;92.46;98450.06;10366372;28;97513;-76
2022/01/05 06:39:28;;;;;;;14.00;7.03;;;7.90;99.90;;;5.89;92.65;98461.66;10385677;28;99431;-76
2022/01/05 06:44:31;;;;;;;24.50;15.13;;;7.80;99.90;;;5.84;93.02;98450.84;10382993;28;100726;-76
2022/01/05 06:49:37;;;;;;;11.87;7.23;;;7.80;99.90;;;5.83;93.29;98452.66;10393809;27;97131;-77
2022/01/05 06:54:40;;;;;;;14.03;7.73;;;7.70;99.90;;;5.82;93.41;98445.75;10391991;28;97304;-77
2022/01/05 06:59:44;;;;;;;13.87;6.93;;;7.70;99.90;;;5.81;93.72;98462.56;10384914;28;96736;-77
2022/01/05 07:04:47;;;;;;;36.37;23.20;;;7.70;99.90;;;5.80;93.60;98457.47;10381627;27;96651;-76
2022/01/05 07:09:53;;;;;;;20.27;13.00;;;7.70;99.90;;;5.78;93.94;98457.66;10384841;27;98308;-77
2022/01/05 07:14:56;;;;;;;15.37;9.30;;;7.70;99.90;;;5.77;93.72;98466.56;10385749;28;98360;-77
2022/01/05 07:19:59;;;;;;;10.60;6.53;;;7.70;99.90;;;5.83;94.13;98462.38;10379816;28;96833;-77
2022/01/05 07:25:04;;;;;;;16.07;8.47;;;7.70;99.90;;;5.89;94.17;98461.66;10382781;27;97295;-77
2022/01/05 07:30:08;;;;;;;13.83;7.27;;;7.80;99.90;;;5.98;94.22;98468.50;10382666;28;99415;-77
2022/01/05 07:35:11;;;;;;;15.03;7.33;;;7.80;99.90;;;6.07;94.24;98475.34;10397480;27;97716;-77
2022/01/05 07:40:14;;;;;;;12.30;6.77;;;7.90;99.90;;;6.19;94.24;98472.28;10377316;28;99450;-77
2022/01/05 07:45:19;;;;;;;9.37;5.70;;;8.00;99.90;;;6.32;94.21;98473.25;10386307;28;96897;-77
2022/01/05 07:50:25;;;;;;;13.90;8.13;;;8.10;99.90;;;6.48;94.31;98450.31;10397705;27;98966;-77
2022/01/05 07:55:30;;;;;;;19.67;10.63;;;8.20;99.90;;;6.62;94.23;98447.66;10380102;28;96912;-77
2022/01/05 08:00:36;;;;;;;13.23;6.97;;;8.40;99.90;;;6.76;93.80;98453.91;10381313;27;99822;-77
2022/01/05 08:05:41;;;;;;;9.13;5.40;;;8.50;99.90;;;6.89;93.45;98461.16;10371443;28;96651;-77
2022/01/05 08:10:49;;;;;;;9.33;5.97;;;8.60;99.90;;;7.01;93.20;98466.75;10380468;28;98235;-77
2022/01/05 08:15:53;;;;;;;14.37;6.53;;;8.70;99.90;;;7.08;92.60;98468.47;10366218;28;97796;-77
2022/01/05 08:20:56;;;;;;;13.17;7.50;;;8.80;99.90;;;7.19;92.48;98481.16;10381694;28;97686;-77
2022/01/05 08:26:04;;;;;;;7.60;4.00;;;8.90;99.90;;;7.87;94.06;98478.94;10388047;28;98437;-77
2022/01/05 08:31:07;;;;;;;5.90;3.07;;;9.30;99.90;;;8.49;91.89;98482.59;10382436;28;98029;-77
2022/01/05 08:36:10;;;;;;;9.93;4.30;;;9.90;99.90;;;8.99;88.80;98467.28;10387463;28;97000;-77
2022/01/05 08:41:13;;;;;;;13.63;4.53;;;10.40;99.90;;;9.38;85.31;98479.81;10385071;28;99814;-77
2022/01/05 08:46:16;;;;;;;5.00;2.67;;;10.80;99.90;;;9.63;84.05;98483.50;10376899;28;100057;-77
2022/01/05 08:51:19;;;;;;;4.37;2.63;;;11.10;99.90;;;9.82;82.89;98479.22;10377201;28;98540;-77
2022/01/05 08:56:24;;;;;;;7.10;2.70;;;11.30;99.90;;;9.93;82.13;98486.56;10387255;28;98655;-77
2022/01/05 09:01:27;;;;;;;5.37;2.87;;;11.50;99.90;;;10.01;80.91;98479.41;10386466;28;98809;-77
2022/01/05 09:06:30;;;;;;;6.67;3.37;;;11.60;99.90;;;10.04;79.94;98471.06;10384279;27;98439;-77
2022/01/05 09:11:33;;;;;;;65.93;21.63;;;11.60;99.90;;;10.05;79.38;98491.25;10390175;28;97844;-77
2022/01/05 09:16:36;;;;;;;5.37;2.80;;;11.60;99.90;;;10.05;78.08;98504.53;10384726;27;98391;-77
2022/01/05 09:21:39;;;;;;;5.63;2.57;;;11.70;99.90;;;10.02;78.09;98512.91;10378700;28;98495;-77
2022/01/05 09:26:42;;;;;;;6.57;2.73;;;11.70;99.90;;;9.94;78.43;98527.19;10388538;28;97169;-85
2022/01/05 09:31:45;;;;;;;6.03;3.40;;;11.60;99.90;;;9.86;78.24;98552.09;10379169;28;98626;-77
2022/01/05 09:36:58;;;;;;;4.73;2.80;;;11.50;99.90;;;9.81;78.82;98554.53;10382721;28;98186;-77
2022/01/05 09:42:05;;;;;;;3.80;2.80;;;11.40;99.90;;;9.74;78.37;98568.81;10385397;28;98925;-78
2022/01/05 09:47:14;;;;;;;9.60;6.07;;;11.40;99.90;;;9.56;77.72;98550.81;10384046;27;98937;-77
2022/01/05 09:52:19;;;;;;;9.00;5.80;;;11.20;99.90;;;9.46;77.87;98558.34;10393894;28;97142;-77
2022/01/05 09:57:23;;;;;;;11.60;6.97;;;11.10;99.90;;;9.30;78.93;98547.09;10378068;28;97390;-77
2022/01/05 10:02:27;;;;;;;8.80;5.73;;;11.00;99.90;;;9.27;79.59;98542.19;10384094;28;97582;-77
2022/01/05 10:07:30;;;;;;;9.47;5.80;;;10.90;99.90;;;9.26;79.93;98542.41;10382197;28;96621;-77
2022/01/05 10:12:33;;;;;;;7.97;5.07;;;10.90;99.90;;;9.25;80.59;98530.16;10385640;28;98254;-76
2022/01/05 10:17:37;;;;;;;15.40;8.83;;;10.90;99.90;;;9.24;80.59;98550.56;10387767;28;97575;-76
2022/01/05 10:22:45;;;;;;;7.47;5.20;;;10.90;99.90;;;9.22;80.75;98546.44;10372171;28;96600;-76
2022/01/05 10:28:04;;;;;;;5.87;3.90;;;10.90;99.90;;;9.15;80.77;98550.91;10392933;28;98873;-76
2022/01/05 10:33:09;;;;;;;;;;;10.80;99.90;;;9.00;80.78;98553.72;10383122;28;96937;-76
2022/01/05 10:38:15;;;;;;;5.70;3.50;;;10.70;99.90;;;8.77;81.29;98562.78;10376217;28;97025;-77
2022/01/05 10:43:18;;;;;;;5.57;3.43;;;10.50;99.90;;;8.58;82.07;98572.25;10385858;28;98590;-76
2022/01/05 10:48:25;;;;;;;5.73;4.20;;;10.30;99.90;;;8.41;82.97;98567.47;10375917;28;98542;-76
2022/01/05 10:53:30;;;;;;;4.40;3.37;;;10.10;99.90;;;8.25;83.49;98574.66;10381981;27;96967;-76
2022/01/05 10:58:45;;;;;;;4.30;2.97;;;10.00;99.90;;;8.14;84.27;98577.81;10373993;28;97058;-76
2022/01/05 11:03:50;;;;;;;4.07;2.80;;;9.90;99.90;;;8.01;85.07;98569.78;10362317;28;97238;-77
2022/01/05 11:09:02;;;;;;;11.17;6.73;;;9.70;99.90;;;7.93;86.25;98588.44;10388367;27;97880;-76
2022/01/05 11:14:11;;;;;;;4.00;2.97;;;9.60;99.90;;;7.81;87.59;98611.09;10377125;28;98344;-77
2022/01/05 11:19:28;;;;;;;4.60;3.00;;;9.50;99.90;;;7.66;88.38;98624.38;10385198;28;98981;-78
2022/01/05 11:24:38;;;;;;;3.77;2.87;;;9.40;99.90;;;7.53;89.30;98627.69;10388810;27;98299;-79
2022/01/05 11:29:41;;;;;;;4.37;2.77;;;9.20;99.90;;;7.42;90.13;98634.28;10380820;28;97967;-76
2022/01/05 11:34:45;;;;;;;3.10;2.00;;;9.10;99.90;;;7.35;90.26;98641.31;10384640;28;96580;-79
2022/01/05 11:39:53;;;;;;;2.03;1.27;;;9.00;99.90;;;7.27;89.89;98636.13;10370104;28;97342;-79
2022/01/05 11:44:57;;;;;;;2.83;1.23;;;8.90;99.90;;;7.18;89.82;98640.69;10320210;28;98430;-79
2022/01/05 11:50:15;;;;;;;2.07;1.50;;;8.80;99.90;;;7.11;90.09;98642.44;10343796;28;98298;-78
2022/01/05 11:55:18;;;;;;;1.13;0.70;;;8.70;99.90;;;7.05;90.21;98629.97;10344079;28;97039;-78
2022/01/05 12:00:22;;;;;;;1.87;1.13;;;8.70;99.90;;;6.98;89.87;98632.50;10348496;28;97010;-78
2022/01/05 12:05:26;;;;;;;7.17;5.43;;;8.70;99.90;;;6.94;90.15;98639.16;10345070;28;97840;-78
2022/01/05 12:10:52;;;;;;;1.20;1.10;;;8.60;99.90;;;6.95;89.80;98642.63;10318092;28;96670;-78
2022/01/05 12:15:59;;;;;;;2.47;1.70;;;8.60;99.90;;;6.93;89.09;98639.34;10332789;28;97746;-78
2022/01/05 12:21:02;;;;;;;1.10;0.80;;;8.60;99.90;;;6.90;87.03;98668.78;10320971;28;98052;-78
2022/01/05 12:26:09;;;;;;;2.30;1.10;;;8.60;99.90;;;6.87;86.50;98663.84;10331063;28;97947;-79
2022/01/05 12:31:14;;;;;;;3.03;1.70;;;8.60;99.90;;;6.84;85.59;98672.13;10343895;28;99425;-78
2022/01/05 12:36:37;;;;;;;1.70;0.90;;;8.50;99.90;;;6.78;85.09;98668.41;10319532;28;98405;-77
2022/01/05 12:41:42;;;;;;;1.45;0.95;;;8.50;99.90;;;6.70;83.58;98671.91;10351985;28;99817;-79
2022/01/05 12:46:52;;;;;;;0.60;0.40;;;8.50;99.90;;;6.68;83.88;98696.88;10361618;28;99425;-79
2022/01/05 12:52:15;;;;;;;2.93;1.03;;;8.40;99.90;;;6.61;83.15;98699.41;10359064;28;98639;-78
2022/01/05 12:57:22;;;;;;;2.30;1.10;;;8.40;99.90;;;6.56;83.01;98690.38;10362722;28;97007;-79
2022/01/05 13:02:30;;;;;;;1.93;0.57;;;8.30;99.90;;;6.53;82.97;98717.94;10372112;28;98515;-77
2022/01/05 13:07:39;;;;;;;1.60;0.73;;;8.30;99.90;;;6.49;83.17;98721.94;10359441;27;96623;-78
2022/01/05 13:12:43;;;;;;;1.30;0.60;;;8.20;99.90;;;6.43;83.36;98723.47;10356311;28;96955;-78
2022/01/05 13:17:46;;;;;;;1.03;0.50;;;8.20;99.90;;;6.40;83.72;98723.81;10390007;28;99280;-78
2022/01/05 13:22:51;;;;;;;2.00;0.90;;;8.20;99.90;;;6.38;83.85;98736.38;10391508;28;98914;-77
2022/01/05 13:28:00;;;;;;;1.40;0.80;;;8.10;99.90;;;6.35;83.87;98751.72;10389293;28;98118;-77
2022/01/05 13:33:12;;;;;;;0.97;0.60;;;8.10;99.90;;;6.32;83.45;98749.44;10376097;27;97629;-77
2022/01/05 13:38:19;;;;;;;2.17;0.70;;;8.10;99.90;;;6.33;83.18;98756.38;10371902;27;97767;-77
2022/01/05 13:43:25;;;;;;;1.70;0.73;;;8.10;99.90;;;6.31;83.42;98759.19;10372940;28;97052;-77
2022/01/05 13:48:31;;;;;;;2.10;1.10;;;8.10;99.90;;;6.29;83.54;98741.88;10347623;28;99745;-77
2022/01/05 13:53:35;;;;;;;2.27;1.33;;;8.10;99.90;;;6.29;83.85;98741.88;10384633;28;97369;-78
2022/01/05 13:58:45;;;;;;;2.53;1.40;;;8.10;99.90;;;6.28;84.01;98782.44;10384463;28;97280;-78
2022/01/05 14:03:52;;;;;;;2.57;1.53;;;8.10;99.90;;;6.26;84.00;98790.53;10368147;28;96969;-78
2022/01/05 14:09:00;;;;;;;7.70;2.70;;;8.10;99.90;;;6.26;83.94;98795.81;10384056;28;97485;-78
2022/01/05 14:14:10;;;;;;;4.43;2.30;;;8.10;99.90;;;6.25;83.65;98796.81;10390362;28;96747;-77
2022/01/05 14:19:25;;;;;;;4.10;2.03;;;8.10;99.90;;;6.28;83.65;98795.63;10389136;27;98464;-77
2022/01/05 14:24:33;;;;;;;4.07;1.90;;;8.10;99.90;;;6.29;83.62;98794.63;10390345;28;96942;-77
2022/01/05 14:29:37;;;;;;;3.00;1.50;;;8.10;99.90;;;6.30;83.77;98796.31;10381589;28;97423;-78
2022/01/05 14:34:52;;;;;;;2.83;1.77;;;8.10;99.90;;;6.31;83.72;98798.75;10397200;28;97437;-78
2022/01/05 14:39:57;;;;;;;3.67;2.13;;;8.10;99.90;;;6.32;84.00;98815.41;10389349;28;97422;-80
2022/01/05 14:45:06;;;;;;;5.50;2.53;;;8.10;99.90;;;6.30;84.01;98839.34;10372713;28;100121;-80
2022/01/05 14:50:09;;;;;;;5.80;2.50;;;8.10;99.90;;;6.27;83.74;98831.75;10376487;28;97265;-79
2022/01/05 14:55:13;;;;;;;4.13;2.40;;;8.10;99.90;;;6.26;83.89;98850.41;10381720;28;97504;-79
2022/01/05 15:00:17;;;;;;;5.00;2.10;;;8.10;99.90;;;6.24;83.97;98834.75;10376978;28;98323;-79
2022/01/05 15:05:22;;;;;;;2.63;1.43;;;8.10;99.90;;;6.24;83.77;98850.59;10381660;28;96686;-80
2022/01/05 15:10:24;;;;;;;1.90;0.97;;;8.00;99.90;;;6.25;83.85;98840.84;10374361;28;96938;-80
2022/01/05 15:15:30;;;;;;;1.97;1.30;;;8.00;99.90;;;6.25;83.91;98861.94;10368795;28;100335;-78
2022/01/05 15:20:35;;;;;;;2.20;1.30;;;8.10;99.90;;;6.22;84.38;98883.38;10388545;28;96720;-78
2022/01/05 15:25:38;;;;;;;6.10;3.23;;;8.00;99.90;;;6.20;84.09;98901.22;10391452;28;97319;-78
2022/01/05 15:30:45;;;;;;;6.67;3.30;;;8.00;99.90;;;6.19;83.83;98908.31;10375628;28;98353;-78
2022/01/05 15:35:49;;;;;;;24.33;15.60;;;8.00;99.90;;;6.18;84.04;98904.03;10381548;28;98511;-80
2022/01/05 15:40:52;;;;;;;18.60;11.57;;;8.00;99.90;;;6.12;84.99;98905.53;10380479;28;98100;-80
2022/01/05 15:45:56;;;;;;;7.27;4.63;;;7.90;99.90;;;6.05;85.67;98888.72;10358653;28;97873;-80
2022/01/05 15:50:59;;;;;;;3.07;2.20;;;7.90;99.90;;;5.98;85.96;98893.03;10380986;27;96738;-79
2022/01/05 16:06:20;;;;;;;6.90;2.80;;;7.70;99.90;;;5.80;85.37;98887.94;10377465;28;97159;-79
2022/01/05 16:11:24;;;;;;;6.07;4.00;;;7.60;99.90;;;5.78;85.17;98907.56;10385399;28;97043;-78
2022/01/05 16:16:28;;;;;;;4.30;2.83;;;7.70;99.90;;;5.77;84.75;98919.13;10381384;28;97965;-79
2022/01/05 16:21:31;;;;;;;3.70;2.90;;;7.60;99.90;;;5.76;84.24;98896.38;10373388;28;97665;-79
2022/01/05 16:26:34;;;;;;;2.83;1.90;;;7.60;99.90;;;5.77;83.63;98912.03;10381538;28;97123;-78
2022/01/05 16:31:40;;;;;;;3.77;2.37;;;7.60;99.90;;;5.79;83.76;98910.03;10372201;28;97078;-78
2022/01/05 16:36:44;;;;;;;3.53;2.27;;;7.60;99.90;;;5.78;83.97;98907.56;10379629;28;97083;-78
2022/01/05 16:41:47;;;;;;;5.33;2.70;;;7.60;99.90;;;5.78;84.23;98912.84;10368582;28;97317;-79
2022/01/05 16:46:50;;;;;;;4.97;2.83;;;7.60;99.90;;;5.76;84.46;98883.22;10376252;28;98445;-78
2022/01/05 16:51:53;;;;;;;6.20;3.33;;;7.60;99.90;;;5.74;84.64;98893.91;10370272;28;98543;-78
2022/01/05 17:02:12;;;;;;;4.40;2.30;;;7.50;99.90;;;5.69;83.87;98925.22;10388736;28;96733;-79
2022/01/05 17:07:18;;;;;;;3.40;1.90;;;7.50;99.90;;;5.70;82.36;98928.66;10393641;28;98188;-79
2022/01/05 17:12:21;;;;;;;4.37;1.93;;;7.50;99.90;;;5.70;81.61;98924.25;10374422;28;98148;-78
2022/01/05 17:17:24;;;;;;;3.43;2.17;;;7.50;99.90;;;5.71;80.93;98946.16;10398335;28;96958;-78
2022/01/05 17:22:28;;;;;;;2.90;1.83;;;7.50;99.90;;;5.73;80.25;98973.16;10387527;28;97356;-78
2022/01/05 17:27:31;;;;;;;3.13;1.90;;;7.50;99.90;;;5.74;80.05;98980.88;10378280;28;97299;-78
2022/01/05 17:32:36;;;;;;;2.53;1.40;;;7.50;99.90;;;5.75;79.58;99000.16;10384742;28;97621;-78
2022/01/05 17:38:00;;;;;;;3.60;2.03;;;7.50;99.90;;;5.73;79.76;99005.59;10402698;28;97206;-78
2022/01/05 17:43:04;;;;;;;1.97;1.20;;;7.50;99.90;;;5.70;80.17;99005.09;10367769;28;98275;-78
2022/01/05 17:48:16;;;;;;;2.87;1.67;;;7.50;99.90;;;5.70;80.53;99010.38;10383804;28;98574;-78
2022/01/05 17:53:19;;;;;;;3.07;1.53;;;7.50;99.90;;;5.67;80.84;99006.25;10381623;28;98193;-79
2022/01/05 17:58:25;;;;;;;3.50;2.10;;;7.50;99.90;;;5.63;81.01;99010.22;10385624;28;98260;-79
2022/01/05 18:03:28;;;;;;;2.70;1.80;;;7.50;99.90;;;5.61;80.61;98996.38;10384349;28;96621;-79
2022/01/05 18:08:32;;;;;;;3.27;1.70;;;7.40;99.90;;;5.59;80.13;99004.47;10362672;28;97691;-79
2022/01/05 18:13:37;;;;;;;4.83;2.70;;;7.40;99.90;;;5.61;79.75;99002.47;10382077;28;98133;-79
2022/01/05 18:18:43;;;;;;;6.27;2.83;;;7.40;99.90;;;5.61;79.24;99014.84;10382318;28;97109;-79
2022/01/05 18:23:48;;;;;;;4.87;2.87;;;7.40;99.90;;;5.63;78.98;99010.22;10379727;28;98256;-79
2022/01/05 18:28:54;;;;;;;4.30;2.87;;;7.40;99.90;;;5.62;78.80;99000.66;10371575;28;97660;-79
2022/01/05 18:33:59;;;;;;;6.03;3.37;;;7.40;99.90;;;5.62;78.80;99009.38;10359778;28;97295;-79
2022/01/05 18:39:04;;;;;;;6.57;3.50;;;7.40;99.90;;;5.61;79.00;99007.75;10356698;27;96697;-79
2022/01/05 18:44:28;;;;;;;4.63;2.90;;;7.40;99.90;;;5.58;78.92;99018.63;10372065;27;96847;-79
2022/01/05 18:49:31;;;;;;;6.40;2.83;;;7.30;99.90;;;5.52;78.66;99019.28;10372548;28;98702;-79
2022/01/05 18:54:35;;;;;;;5.13;2.80;;;7.30;99.90;;;5.50;78.16;99010.72;10383550;28;96933;-79
2022/01/05 18:59:37;;;;;;;4.70;2.70;;;7.30;99.90;;;5.46;77.22;99009.41;10384431;28;97108;-79
2022/01/05 19:04:41;;;;;;;2.07;1.37;;;7.30;99.90;;;5.44;74.18;99002.63;10382908;28;98449;-78
2022/01/05 19:09:44;;;;;;;3.10;1.50;;;7.20;99.90;;;5.41;73.23;99006.44;10390487;28;96800;-79
2022/01/05 19:14:47;;;;;;;2.70;1.60;;;7.20;99.90;;;5.38;72.17;98990.94;10382551;28;96857;-79
2022/01/05 19:19:50;;;;;;;1.73;1.30;;;7.20;99.90;;;5.32;70.92;98989.78;10387865;28;96618;-80
2022/01/05 19:24:54;;;;;;;2.10;1.40;;;7.10;99.90;;;5.28;70.59;98996.38;10385596;28;96831;-82
2022/01/05 19:30:18;;;;;;;2.60;1.40;;;7.00;99.90;;;5.24;70.33;98989.78;10384935;28;97317;-79
2022/01/05 19:35:21;;;;;;;1.20;0.80;;;7.00;99.90;;;5.18;68.35;99016.78;10389349;28;97983;-79
2022/01/05 19:40:24;;;;;;;2.93;1.00;;;7.00;99.90;;;5.08;65.34;99016.91;10383034;28;97985;-79
2022/01/05 19:45:27;;;;;;;2.60;1.23;;;6.80;98.80;;;5.04;63.83;99038.50;10387442;28;96602;-80
2022/01/05 19:50:43;;;;;;;2.47;0.93;;;6.80;97.60;;;4.96;63.91;99022.66;10392636;28;97455;-79
2022/01/05 19:55:51;;;;;;;2.67;1.10;;;6.70;96.90;;;4.86;63.51;98985.09;10400074;28;98462;-79
2022/01/05 20:00:54;;;;;;;1.70;0.90;;;6.70;96.70;;;4.77;62.39;99035.09;10382178;28;96956;-80
2022/01/05 20:05:57;;;;;;;1.37;0.83;;;6.60;94.90;;;4.69;61.68;99015.84;10377621;28;96636;-79
2022/01/05 20:10:59;;;;;;;3.07;0.97;;;6.50;94.10;;;4.64;60.82;99033.91;10389882;28;96650;-80
2022/01/05 20:16:02;;;;;;;2.60;1.00;;;6.40;93.40;;;4.57;60.72;99063.47;10386892;28;96919;-80
2022/01/05 20:21:08;;;;;;;1.70;0.63;;;6.40;93.30;;;4.48;58.59;99074.91;10379455;28;96942;-80
2022/01/05 20:26:12;;;;;;;2.37;1.03;;;6.30;91.10;;;4.40;57.67;99080.16;10393023;28;96926;-81
2022/01/05 20:31:15;;;;;;;2.13;1.00;;;6.20;87.70;;;4.35;57.28;99097.38;10400032;27;98568;-79
2022/01/05 20:36:19;;;;;;;1.93;0.80;;;6.10;88.60;;;4.28;57.01;99107.69;10359412;28;96603;-79
2022/01/05 20:41:22;;;;;;;1.70;0.70;;;6.10;87.10;;;4.19;56.58;99127.00;10379543;28;96636;-79
2022/01/05 20:46:28;;;;;;;1.87;0.97;;;6.00;85.50;;;4.13;56.90;99138.13;10369181;28;97357;-79
2022/01/05 20:51:31;;;;;;;2.13;0.90;;;6.00;85.70;;;4.06;56.87;99145.81;10378638;28;97949;-80
2022/01/05 20:56:34;;;;;;;3.20;1.00;;;5.90;82.60;;;4.00;57.69;99160.38;10366309;28;96628;-79
2022/01/05 21:01:38;;;;;;;3.13;1.17;;;5.90;86.20;;;3.93;57.86;99159.34;10377696;28;97244;-79
2022/01/05 21:06:45;;;;;;;2.40;1.20;;;5.80;85.50;;;3.88;57.49;99152.88;10359690;28;97403;-80
2022/01/05 21:11:48;;;;;;;4.10;1.50;;;5.70;83.30;;;3.82;57.12;99156.94;10359774;28;96549;-79
2022/01/05 21:16:51;;;;;;;3.43;1.50;;;5.70;84.30;;;3.76;58.12;99145.22;10377382;27;98585;-80
2022/01/05 21:21:55;;;;;;;3.50;1.50;;;5.60;85.90;;;3.71;57.87;99160.59;10370035;27;98841;-79
2022/01/05 21:26:58;;;;;;;2.60;1.13;;;5.60;84.90;;;3.69;58.85;99180.13;10353544;28;98420;-80
2022/01/05 21:32:01;;;;;;;1.87;0.90;;;5.50;86.10;;;3.63;59.04;99181.53;10385904;28;97736;-79
2022/01/05 21:37:06;;;;;;;1.87;1.00;;;5.50;86.30;;;3.58;59.52;99199.53;10388852;28;98584;-80
2022/01/05 21:42:12;;;;;;;2.07;1.00;;;5.40;87.30;;;3.53;59.74;99217.53;10367074;28;96595;-79
2022/01/05 21:47:21;;;;;;;3.37;1.33;;;5.40;87.70;;;3.48;60.19;99204.88;10362986;28;97500;-80